createdAt,value
2023-05-19T00:00:10.032Z,3.20
2023-05-19T00:00:48.550Z,3.50
2023-05-19T00:01:23.283Z,2.80
2023-05-19T00:02:00.486Z,3.80
2023-05-19T00:02:34.019Z,2.97
2023-05-19T00:03:09.233Z,3.13
2023-05-19T00:03:52.902Z,3.00
2023-05-19T00:04:26.012Z,2.83
2023-05-19T00:05:02.264Z,3.53
2023-05-19T00:05:41.043Z,3.17
2023-05-19T00:06:14.096Z,2.90
2023-05-19T00:06:51.340Z,3.07
2023-05-19T00:07:28.770Z,3.40
2023-05-19T00:08:01.455Z,3.70
2023-05-19T00:08:34.613Z,3.40
2023-05-19T00:09:10.894Z,3.33
2023-05-19T00:09:43.866Z,3.00
2023-05-19T00:10:18.197Z,3.00
2023-05-19T00:10:53.852Z,3.40
2023-05-19T00:11:27.116Z,3.10
2023-05-19T00:12:00.167Z,3.20
2023-05-19T00:12:35.648Z,3.50
2023-05-19T00:13:08.169Z,3.33
2023-05-19T00:13:40.976Z,3.10
2023-05-19T00:14:14.171Z,3.70
2023-05-19T00:14:49.749Z,3.10
2023-05-19T00:15:23.022Z,3.43
2023-05-19T00:15:56.390Z,3.23
2023-05-19T00:16:32.463Z,3.27
2023-05-19T00:17:05.768Z,3.27
2023-05-19T00:17:38.615Z,3.30
2023-05-19T00:18:14.372Z,3.30
2023-05-19T00:18:48.498Z,3.00
2023-05-19T00:19:22.353Z,3.10
2023-05-19T00:19:58.115Z,3.07
2023-05-19T00:20:33.300Z,3.17
2023-05-19T00:21:06.130Z,3.10
2023-05-19T00:21:41.590Z,3.00
2023-05-19T00:22:14.539Z,3.23
2023-05-19T00:22:46.969Z,3.00
2023-05-19T00:23:21.958Z,3.80
2023-05-19T00:23:54.567Z,3.10
2023-05-19T00:24:27.010Z,3.10
2023-05-19T00:25:01.986Z,3.40
2023-05-19T00:25:34.394Z,3.17
2023-05-19T00:26:06.816Z,2.90
2023-05-19T00:26:42.008Z,3.30
2023-05-19T00:27:14.557Z,3.33
2023-05-19T00:27:46.951Z,3.10
2023-05-19T00:28:21.936Z,3.60
2023-05-19T00:28:54.632Z,2.87
2023-05-19T00:29:26.993Z,3.40
2023-05-19T00:30:02.096Z,3.47
2023-05-19T00:30:34.566Z,2.70
2023-05-19T00:31:07.162Z,3.60
2023-05-19T00:31:42.625Z,3.10
2023-05-19T00:32:15.942Z,3.00
2023-05-19T00:32:48.378Z,3.57
2023-05-19T00:33:23.389Z,3.07
2023-05-19T00:33:55.763Z,3.10
2023-05-19T00:34:28.224Z,2.83
2023-05-19T00:35:03.197Z,2.70
2023-05-19T00:35:38.163Z,2.77
2023-05-19T00:36:10.804Z,3.27
2023-05-19T00:36:46.036Z,2.70
2023-05-19T00:37:20.827Z,2.87
2023-05-19T00:37:53.337Z,3.50
2023-05-19T00:38:28.371Z,3.00
2023-05-19T00:39:00.718Z,3.07
2023-05-19T00:39:33.510Z,2.83
2023-05-19T00:40:10.428Z,2.70
2023-05-19T00:40:42.934Z,2.97
2023-05-19T00:41:15.368Z,3.03
2023-05-19T00:41:50.481Z,3.00
2023-05-19T00:42:22.888Z,3.23
2023-05-19T00:42:55.250Z,2.80
2023-05-19T00:43:27.737Z,2.73
2023-05-19T00:44:03.038Z,3.00
2023-05-19T00:44:37.292Z,3.30
2023-05-19T00:45:10.914Z,2.80
2023-05-19T00:45:47.126Z,3.00
2023-05-19T00:46:19.903Z,3.23
2023-05-19T00:46:56.085Z,2.87
2023-05-19T00:47:28.501Z,3.17
2023-05-19T00:48:00.956Z,2.67
2023-05-19T00:48:36.208Z,2.80
2023-05-19T00:49:08.563Z,2.73
2023-05-19T00:49:41.217Z,2.80
2023-05-19T00:50:16.190Z,3.33
2023-05-19T00:50:51.666Z,3.27
2023-05-19T00:51:26.903Z,2.90
2023-05-19T00:52:02.689Z,2.70
2023-05-19T00:52:35.101Z,3.10
2023-05-19T00:53:07.732Z,2.90
2023-05-19T00:53:40.135Z,2.90
2023-05-19T00:54:15.214Z,2.90
2023-05-19T00:54:47.610Z,3.37
2023-05-19T00:55:20.865Z,3.00
2023-05-19T00:55:55.902Z,3.33
2023-05-19T00:56:28.293Z,2.90
2023-05-19T00:57:01.103Z,3.60
2023-05-19T00:57:36.113Z,3.07
2023-05-19T00:58:10.556Z,3.63
2023-05-19T00:58:43.053Z,2.73
2023-05-19T00:59:18.034Z,3.30
2023-05-19T00:59:50.589Z,2.83
2023-05-19T01:00:23.383Z,2.90
2023-05-19T01:00:56.953Z,3.63
2023-05-19T01:01:32.587Z,2.70
2023-05-19T01:02:05.289Z,3.30
2023-05-19T01:02:38.651Z,3.23
2023-05-19T01:03:12.056Z,2.80
2023-05-19T01:03:48.281Z,2.70
2023-05-19T01:04:21.926Z,2.60
2023-05-19T01:04:55.674Z,3.00
2023-05-19T01:05:28.056Z,2.60
2023-05-19T01:06:07.515Z,3.40
2023-05-19T01:06:39.961Z,2.97
2023-05-19T01:07:12.840Z,3.30
2023-05-19T01:07:47.917Z,3.00
2023-05-19T01:08:20.396Z,2.70
2023-05-19T01:08:53.566Z,2.90
2023-05-19T01:09:28.606Z,2.80
2023-05-19T01:10:00.970Z,3.40
2023-05-19T01:10:33.742Z,2.80
2023-05-19T01:11:07.106Z,2.57
2023-05-19T01:11:42.167Z,2.90
2023-05-19T01:12:14.635Z,2.70
2023-05-19T01:12:47.327Z,3.00
2023-05-19T01:13:19.816Z,3.10
2023-05-19T01:13:54.878Z,2.90
2023-05-19T01:14:27.589Z,2.47
2023-05-19T01:15:00.033Z,2.80
2023-05-19T01:15:34.636Z,3.23
2023-05-19T01:16:13.680Z,2.93
2023-05-19T01:16:49.422Z,2.70
2023-05-19T01:17:27.827Z,2.97
2023-05-19T01:18:07.543Z,2.33
2023-05-19T01:18:46.489Z,2.80
2023-05-19T01:19:37.126Z,3.10
2023-05-19T01:20:20.069Z,2.83
2023-05-19T01:21:10.880Z,3.20
2023-05-19T01:22:22.977Z,3.13
2023-05-19T01:23:25.326Z,2.80
2023-05-19T01:24:10.055Z,3.00
2023-05-19T01:25:29.032Z,3.00
2023-05-19T01:26:35.646Z,3.77
2023-05-19T01:27:24.522Z,3.03
2023-05-19T01:28:22.439Z,3.37
2023-05-19T01:29:12.052Z,3.13
2023-05-19T01:30:00.906Z,2.80
2023-05-19T01:30:37.954Z,2.73
2023-05-19T01:31:13.849Z,2.90
2023-05-19T01:31:48.167Z,3.20
2023-05-19T01:32:21.605Z,3.10
2023-05-19T01:32:55.921Z,3.70
2023-05-19T01:33:33.156Z,3.40
2023-05-19T01:34:06.740Z,3.30
2023-05-19T01:34:43.768Z,2.80
2023-05-19T01:35:19.815Z,2.60
2023-05-19T01:35:52.549Z,2.90
2023-05-19T01:36:29.084Z,2.90
2023-05-19T01:37:01.686Z,3.37
2023-05-19T01:37:35.018Z,3.30
2023-05-19T01:38:12.083Z,2.90
2023-05-19T01:38:46.614Z,3.30
2023-05-19T01:39:19.347Z,3.40
2023-05-19T01:39:56.195Z,3.30
2023-05-19T01:40:29.937Z,3.03
2023-05-19T01:41:04.378Z,2.80
2023-05-19T01:41:40.341Z,2.90
2023-05-19T01:42:15.080Z,3.03
2023-05-19T01:42:47.851Z,2.80
2023-05-19T01:43:24.473Z,3.13
2023-05-19T01:43:58.513Z,2.73
2023-05-19T01:44:31.536Z,3.17
2023-05-19T01:45:07.079Z,2.47
2023-05-19T01:45:42.515Z,2.93
2023-05-19T01:46:15.136Z,2.60
2023-05-19T01:46:50.854Z,2.63
2023-05-19T01:47:23.393Z,2.73
2023-05-19T01:47:58.861Z,2.70
2023-05-19T01:48:33.921Z,3.23
2023-05-19T01:49:06.942Z,3.30
2023-05-19T01:49:39.320Z,3.10
2023-05-19T01:50:11.890Z,3.00
2023-05-19T01:50:47.002Z,3.27
2023-05-19T01:51:19.373Z,2.97
2023-05-19T01:51:52.873Z,2.70
2023-05-19T01:52:27.866Z,3.40
2023-05-19T01:53:00.909Z,2.70
2023-05-19T01:53:35.901Z,3.50
2023-05-19T01:54:08.262Z,3.10
2023-05-19T01:54:40.616Z,2.57
2023-05-19T01:55:15.660Z,3.07
2023-05-19T01:55:51.941Z,2.77
2023-05-19T01:56:34.820Z,3.80
2023-05-19T01:57:16.200Z,3.00
2023-05-19T01:57:59.264Z,3.27
2023-05-19T01:58:39.661Z,3.07
2023-05-19T01:59:23.893Z,3.37
2023-05-19T02:00:05.743Z,3.10
2023-05-19T02:00:55.847Z,3.50
2023-05-19T02:01:32.756Z,2.87
2023-05-19T02:02:11.479Z,2.57
2023-05-19T02:02:59.257Z,3.10
2023-05-19T02:03:54.878Z,2.73
2023-05-19T02:04:39.388Z,3.30
2023-05-19T02:05:21.906Z,3.10
2023-05-19T02:06:01.721Z,2.53
2023-05-19T02:06:42.415Z,2.90
2023-05-19T02:07:29.343Z,2.87
2023-05-19T02:08:08.908Z,2.73
2023-05-19T02:08:46.530Z,2.53
2023-05-19T02:09:24.170Z,2.67
2023-05-19T02:10:04.270Z,3.10
2023-05-19T02:10:44.148Z,2.70
2023-05-19T02:11:20.257Z,2.80
2023-05-19T02:11:55.485Z,3.00
2023-05-19T02:12:32.704Z,2.90
2023-05-19T02:13:08.808Z,3.40
2023-05-19T02:13:44.502Z,3.17
2023-05-19T02:14:23.620Z,3.17
2023-05-19T02:15:06.206Z,3.40
2023-05-19T02:15:44.119Z,2.80
2023-05-19T02:16:19.911Z,2.67
2023-05-19T02:16:53.087Z,2.80
2023-05-19T02:17:27.286Z,3.03
2023-05-19T02:18:04.772Z,3.27
2023-05-19T02:18:37.272Z,2.87
2023-05-19T02:19:20.954Z,3.10
2023-05-19T02:19:56.158Z,2.60
2023-05-19T02:20:28.577Z,3.17
2023-05-19T02:21:01.025Z,3.20
2023-05-19T02:21:36.121Z,3.10
2023-05-19T02:22:08.503Z,2.97
2023-05-19T02:22:41.558Z,3.33
2023-05-19T02:23:13.942Z,2.77
2023-05-19T02:23:48.931Z,3.57
2023-05-19T02:24:23.111Z,3.07
2023-05-19T02:24:56.742Z,2.87
2023-05-19T02:25:31.910Z,2.53
2023-05-19T02:26:05.622Z,2.93
2023-05-19T02:26:39.036Z,2.60
2023-05-19T02:27:14.025Z,3.17
2023-05-19T02:27:49.320Z,3.07
2023-05-19T02:28:27.950Z,3.10
2023-05-19T02:29:00.289Z,2.80
2023-05-19T02:29:32.673Z,2.73
2023-05-19T02:30:08.423Z,3.00
2023-05-19T02:30:42.421Z,2.53
2023-05-19T02:31:14.777Z,2.70
2023-05-19T02:31:52.485Z,3.10
2023-05-19T02:32:24.892Z,2.90
2023-05-19T02:32:57.334Z,3.40
2023-05-19T02:33:30.583Z,2.93
2023-05-19T02:34:05.917Z,3.10
2023-05-19T02:34:38.273Z,3.03
2023-05-19T02:35:10.902Z,2.80
2023-05-19T02:35:45.919Z,2.90
2023-05-19T02:36:20.288Z,2.70
2023-05-19T02:36:52.665Z,3.17
2023-05-19T02:37:28.698Z,3.60
2023-05-19T02:38:01.434Z,2.70
2023-05-19T02:38:33.804Z,3.33
2023-05-19T02:39:06.152Z,2.90
2023-05-19T02:39:41.118Z,2.97
2023-05-19T02:40:13.500Z,3.00
2023-05-19T02:40:45.897Z,3.83
2023-05-19T02:41:22.211Z,2.80
2023-05-19T02:41:54.583Z,2.97
2023-05-19T02:42:26.946Z,3.23
2023-05-19T02:42:59.365Z,3.70
2023-05-19T02:43:34.403Z,3.57
2023-05-19T02:44:06.848Z,3.40
2023-05-19T02:44:39.498Z,4.00
2023-05-19T02:45:15.039Z,3.70
2023-05-19T02:45:47.448Z,3.57
2023-05-19T02:46:19.980Z,3.40
2023-05-19T02:46:57.803Z,2.83
2023-05-19T02:47:30.263Z,3.33
2023-05-19T02:48:02.697Z,3.70
2023-05-19T02:48:37.726Z,3.40
2023-05-19T02:49:10.127Z,2.90
2023-05-19T02:49:43.262Z,2.87
2023-05-19T02:50:18.367Z,3.53
2023-05-19T02:50:50.793Z,2.60
2023-05-19T02:51:23.197Z,3.10
2023-05-19T02:51:58.166Z,3.70
2023-05-19T02:52:30.652Z,3.10
2023-05-19T02:53:03.135Z,3.47
2023-05-19T02:53:39.494Z,2.70
2023-05-19T02:54:11.881Z,3.33
2023-05-19T02:54:44.369Z,3.40
2023-05-19T02:55:19.865Z,2.80
2023-05-19T02:55:52.274Z,3.00
2023-05-19T02:56:24.924Z,3.00
2023-05-19T02:56:59.902Z,3.30
2023-05-19T02:57:33.457Z,3.47
2023-05-19T02:58:05.890Z,3.63
2023-05-19T02:58:43.317Z,3.43
2023-05-19T02:59:16.324Z,2.90
2023-05-19T02:59:48.703Z,3.30
2023-05-19T03:00:21.292Z,3.20
2023-05-19T03:00:57.163Z,3.50
2023-05-19T03:01:29.635Z,3.00
2023-05-19T03:02:05.222Z,3.23
2023-05-19T03:02:41.577Z,2.80
2023-05-19T03:03:15.090Z,2.83
2023-05-19T03:03:47.666Z,2.70
2023-05-19T03:04:20.349Z,2.63
2023-05-19T03:04:55.307Z,2.80
2023-05-19T03:05:27.708Z,2.90
2023-05-19T03:06:00.161Z,2.60
2023-05-19T03:06:35.390Z,3.00
2023-05-19T03:07:07.862Z,2.87
2023-05-19T03:07:40.384Z,3.30
2023-05-19T03:08:15.353Z,2.93
2023-05-19T03:08:47.709Z,3.40
2023-05-19T03:09:20.129Z,2.70
2023-05-19T03:09:55.452Z,2.93
2023-05-19T03:10:27.984Z,2.80
2023-05-19T03:11:00.348Z,3.60
2023-05-19T03:11:35.349Z,3.23
2023-05-19T03:12:08.281Z,3.40
2023-05-19T03:12:40.767Z,2.93
2023-05-19T03:13:17.309Z,3.03
2023-05-19T03:13:49.692Z,2.80
2023-05-19T03:14:24.350Z,2.70
2023-05-19T03:14:57.153Z,2.90
2023-05-19T03:15:32.713Z,2.87
2023-05-19T03:16:05.484Z,3.00
2023-05-19T03:16:38.092Z,3.00
2023-05-19T03:17:16.276Z,2.50
2023-05-19T03:17:49.137Z,3.13
2023-05-19T03:18:21.618Z,2.70
2023-05-19T03:18:55.774Z,2.90
2023-05-19T03:19:32.690Z,2.87
2023-05-19T03:20:05.972Z,3.10
2023-05-19T03:20:40.295Z,2.80
2023-05-19T03:21:16.637Z,3.10
2023-05-19T03:21:49.853Z,2.80
2023-05-19T03:22:22.302Z,3.07
2023-05-19T03:22:54.671Z,3.30
2023-05-19T03:23:29.785Z,2.60
2023-05-19T03:24:02.618Z,2.63
2023-05-19T03:24:35.436Z,2.70
2023-05-19T03:25:11.802Z,3.00
2023-05-19T03:25:44.283Z,2.80
2023-05-19T03:26:16.648Z,2.83
2023-05-19T03:26:51.733Z,2.80
2023-05-19T03:27:24.780Z,2.77
2023-05-19T03:27:57.152Z,2.60
2023-05-19T03:28:32.294Z,2.70
2023-05-19T03:29:04.739Z,2.80
2023-05-19T03:29:40.197Z,3.33
2023-05-19T03:30:16.574Z,2.77
2023-05-19T03:31:01.615Z,2.80
2023-05-19T03:31:39.600Z,3.10
2023-05-19T03:32:17.240Z,2.50
2023-05-19T03:32:52.304Z,2.97
2023-05-19T03:33:25.385Z,3.00
2023-05-19T03:34:00.771Z,2.63
2023-05-19T03:34:34.108Z,3.57
2023-05-19T03:35:07.215Z,2.97
2023-05-19T03:35:42.290Z,2.90
2023-05-19T03:36:17.751Z,3.13
2023-05-19T03:36:50.540Z,3.43
2023-05-19T03:37:23.223Z,3.10
2023-05-19T03:37:58.390Z,3.10
2023-05-19T03:38:31.510Z,3.10
2023-05-19T03:39:04.173Z,3.10
2023-05-19T03:39:39.449Z,3.17
2023-05-19T03:40:13.177Z,2.90
2023-05-19T03:40:48.353Z,3.13
2023-05-19T03:41:23.317Z,2.90
2023-05-19T03:41:56.619Z,3.00
2023-05-19T03:42:31.602Z,3.30
2023-05-19T03:43:04.041Z,3.10
2023-05-19T03:43:38.509Z,3.03
2023-05-19T03:44:15.665Z,2.60
2023-05-19T03:44:49.066Z,2.97
2023-05-19T03:45:21.590Z,2.87
2023-05-19T03:45:59.715Z,3.10
2023-05-19T03:46:51.011Z,2.70
2023-05-19T03:47:50.183Z,3.33
2023-05-19T03:48:41.502Z,3.23
2023-05-19T03:49:36.759Z,2.70
2023-05-19T03:50:29.385Z,3.00
2023-05-19T03:51:11.232Z,2.80
2023-05-19T03:51:44.521Z,2.70
2023-05-19T03:52:40.020Z,2.83
2023-05-19T03:53:20.019Z,3.17
2023-05-19T03:53:52.865Z,2.73
2023-05-19T03:54:28.005Z,2.73
2023-05-19T03:55:00.383Z,2.73
2023-05-19T03:55:32.813Z,3.13
2023-05-19T03:56:08.441Z,2.97
2023-05-19T03:56:42.453Z,3.33
2023-05-19T03:57:15.092Z,2.87
2023-05-19T03:57:50.128Z,2.60
2023-05-19T03:58:22.504Z,2.90
2023-05-19T03:58:56.145Z,2.90
2023-05-19T03:59:31.552Z,2.80
2023-05-19T04:00:05.794Z,3.20
2023-05-19T04:00:47.178Z,2.50
2023-05-19T04:01:20.024Z,3.10
2023-05-19T04:01:53.107Z,3.10
2023-05-19T04:02:28.418Z,3.27
2023-05-19T04:03:03.713Z,2.93
2023-05-19T04:03:36.261Z,2.60
2023-05-19T04:04:11.270Z,3.40
2023-05-19T04:04:43.712Z,3.17
2023-05-19T04:05:16.622Z,2.47
2023-05-19T04:05:51.929Z,3.30
2023-05-19T04:06:24.356Z,2.70
2023-05-19T04:06:56.823Z,2.87
2023-05-19T04:07:31.821Z,3.93
2023-05-19T04:08:04.389Z,2.57
2023-05-19T04:08:36.807Z,3.17
2023-05-19T04:09:16.062Z,3.33
2023-05-19T04:09:48.876Z,3.03
2023-05-19T04:10:21.745Z,2.97
2023-05-19T04:10:56.876Z,3.00
2023-05-19T04:11:29.215Z,2.90
2023-05-19T04:12:02.926Z,3.00
2023-05-19T04:12:37.922Z,3.20
2023-05-19T04:13:10.538Z,3.17
2023-05-19T04:13:44.502Z,2.90
2023-05-19T04:14:20.614Z,2.83
2023-05-19T04:14:52.996Z,2.27
2023-05-19T04:15:25.392Z,2.67
2023-05-19T04:16:00.375Z,3.20
2023-05-19T04:16:32.933Z,3.13
2023-05-19T04:17:05.734Z,3.13
2023-05-19T04:17:42.131Z,2.97
2023-05-19T04:18:17.689Z,3.20
2023-05-19T04:18:50.129Z,3.10
2023-05-19T04:19:25.239Z,2.80
2023-05-19T04:19:57.658Z,2.90
2023-05-19T04:20:30.171Z,2.70
2023-05-19T04:21:05.403Z,3.00
2023-05-19T04:21:37.793Z,2.80
2023-05-19T04:22:10.428Z,2.77
2023-05-19T04:22:45.419Z,2.97
2023-05-19T04:23:17.812Z,3.00
2023-05-19T04:23:50.293Z,2.73
2023-05-19T04:24:25.253Z,3.10
2023-05-19T04:24:58.514Z,2.70
2023-05-19T04:25:30.940Z,2.83
2023-05-19T04:26:07.054Z,2.97
2023-05-19T04:26:42.059Z,2.90
2023-05-19T04:27:16.252Z,2.77
2023-05-19T04:27:51.292Z,2.30
2023-05-19T04:28:24.261Z,3.10
2023-05-19T04:28:56.818Z,3.30
2023-05-19T04:29:32.842Z,3.00
2023-05-19T04:30:06.400Z,3.00
2023-05-19T04:30:38.878Z,2.30
2023-05-19T04:31:14.507Z,3.50
2023-05-19T04:31:47.841Z,3.00
2023-05-19T04:32:21.328Z,3.00
2023-05-19T04:32:58.330Z,2.70
2023-05-19T04:33:34.232Z,3.03
2023-05-19T04:34:08.107Z,2.87
2023-05-19T04:34:45.529Z,3.10
2023-05-19T04:35:23.031Z,3.07
2023-05-19T04:35:56.066Z,3.27
2023-05-19T04:36:31.540Z,2.97
2023-05-19T04:37:04.543Z,2.77
2023-05-19T04:37:38.601Z,3.03
2023-05-19T04:38:19.101Z,2.63
2023-05-19T04:38:55.245Z,2.80
2023-05-19T04:39:31.526Z,2.90
2023-05-19T04:40:11.345Z,2.40
2023-05-19T04:40:45.193Z,2.60
2023-05-19T04:41:18.858Z,2.73
2023-05-19T04:41:54.329Z,2.70
2023-05-19T04:42:30.838Z,2.83
2023-05-19T04:43:05.150Z,3.07
2023-05-19T04:43:41.928Z,3.00
2023-05-19T04:44:18.536Z,2.63
2023-05-19T04:44:53.619Z,3.40
2023-05-19T04:45:33.345Z,3.07
2023-05-19T04:46:07.500Z,3.17
2023-05-19T04:46:40.200Z,2.57
2023-05-19T04:47:15.547Z,3.30
2023-05-19T04:47:48.533Z,2.60
2023-05-19T04:48:21.959Z,2.63
2023-05-19T04:49:01.494Z,3.00
2023-05-19T04:49:33.888Z,3.20
2023-05-19T04:50:08.121Z,3.10
2023-05-19T04:50:43.121Z,2.90
2023-05-19T04:51:15.668Z,2.93
2023-05-19T04:51:50.832Z,2.90
2023-05-19T04:52:31.079Z,2.60
2023-05-19T04:53:03.759Z,3.03
2023-05-19T04:53:36.802Z,2.90
2023-05-19T04:54:14.157Z,2.77
2023-05-19T04:54:46.513Z,2.70
2023-05-19T04:55:19.274Z,2.57
2023-05-19T04:55:56.907Z,2.90
2023-05-19T04:56:30.255Z,3.23
2023-05-19T04:57:03.444Z,2.90
2023-05-19T04:57:40.691Z,3.03
2023-05-19T04:58:13.208Z,2.83
2023-05-19T04:58:45.592Z,3.37
2023-05-19T04:59:20.662Z,2.90
2023-05-19T04:59:59.949Z,2.43
2023-05-19T05:00:40.321Z,3.20
2023-05-19T05:01:15.992Z,3.00
2023-05-19T05:01:49.013Z,2.87
2023-05-19T05:02:25.367Z,3.40
2023-05-19T05:02:58.291Z,2.73
2023-05-19T05:03:34.758Z,2.93
2023-05-19T05:04:12.530Z,2.90
2023-05-19T05:04:46.792Z,2.83
2023-05-19T05:05:20.202Z,3.00
2023-05-19T05:05:55.305Z,2.73
2023-05-19T05:06:28.780Z,2.70
2023-05-19T05:07:01.466Z,2.80
2023-05-19T05:07:37.157Z,2.70
2023-05-19T05:08:10.297Z,2.73
2023-05-19T05:08:46.475Z,2.97
2023-05-19T05:09:22.106Z,2.80
2023-05-19T05:09:55.622Z,2.73
2023-05-19T05:10:28.350Z,2.30
2023-05-19T05:11:04.263Z,2.67
2023-05-19T05:11:37.881Z,2.90
2023-05-19T05:12:12.326Z,2.80
2023-05-19T05:12:49.294Z,3.00
2023-05-19T05:13:23.321Z,2.47
2023-05-19T05:13:58.404Z,3.40
2023-05-19T05:14:35.921Z,2.93
2023-05-19T05:15:10.793Z,2.90
2023-05-19T05:15:44.326Z,2.80
2023-05-19T05:16:20.139Z,2.90
2023-05-19T05:16:53.537Z,2.90
2023-05-19T05:17:32.347Z,3.57
2023-05-19T05:18:06.022Z,3.30
2023-05-19T05:18:39.211Z,3.00
2023-05-19T05:19:17.758Z,3.00
2023-05-19T05:19:50.904Z,3.07
2023-05-19T05:20:24.312Z,2.73
2023-05-19T05:21:00.134Z,3.33
2023-05-19T05:21:33.207Z,2.90
2023-05-19T05:22:06.599Z,2.50
2023-05-19T05:22:45.156Z,2.70
2023-05-19T05:23:19.229Z,3.37
2023-05-19T05:23:56.697Z,2.80
2023-05-19T05:24:32.305Z,2.90
2023-05-19T05:25:11.487Z,2.07
2023-05-19T05:25:45.095Z,2.83
2023-05-19T05:26:18.914Z,2.90
2023-05-19T05:26:56.919Z,3.23
2023-05-19T05:27:29.281Z,3.30
2023-05-19T05:28:05.413Z,2.77
2023-05-19T05:28:41.504Z,2.90
2023-05-19T05:29:13.941Z,3.40
2023-05-19T05:29:46.350Z,3.97
2023-05-19T05:30:21.783Z,2.77
2023-05-19T05:30:56.526Z,3.00
2023-05-19T05:31:29.556Z,3.30
2023-05-19T05:32:04.710Z,3.13
2023-05-19T05:32:37.277Z,3.33
2023-05-19T05:33:15.741Z,3.40
2023-05-19T05:33:50.934Z,3.00
2023-05-19T05:34:35.904Z,2.93
2023-05-19T05:35:11.850Z,3.13
2023-05-19T05:35:44.983Z,3.20
2023-05-19T05:36:19.338Z,3.13
2023-05-19T05:36:54.324Z,2.93
2023-05-19T05:37:27.471Z,2.80
2023-05-19T05:38:00.165Z,3.03
2023-05-19T05:38:35.324Z,3.20
2023-05-19T05:39:08.384Z,3.27
2023-05-19T05:39:43.164Z,3.10
2023-05-19T05:40:18.427Z,4.00
2023-05-19T05:40:50.932Z,2.70
2023-05-19T05:41:23.448Z,2.90
2023-05-19T05:42:00.207Z,2.90
2023-05-19T05:42:33.117Z,3.67
2023-05-19T05:43:05.495Z,3.23
2023-05-19T05:43:44.069Z,3.50
2023-05-19T05:44:16.464Z,3.63
2023-05-19T05:44:50.478Z,3.33
2023-05-19T05:45:25.972Z,3.20
2023-05-19T05:45:59.516Z,3.30
2023-05-19T05:46:32.887Z,3.60
2023-05-19T05:47:09.138Z,3.50
2023-05-19T05:47:42.229Z,3.10
2023-05-19T05:48:15.839Z,3.60
2023-05-19T05:48:51.932Z,3.37
2023-05-19T05:49:25.240Z,3.37
2023-05-19T05:50:01.561Z,4.07
2023-05-19T05:50:37.917Z,3.23
2023-05-19T05:51:11.010Z,3.70
2023-05-19T05:51:57.984Z,3.33
2023-05-19T05:52:41.712Z,3.20
2023-05-19T05:53:21.612Z,3.50
2023-05-19T05:53:58.233Z,3.20
2023-05-19T05:54:38.166Z,3.70
2023-05-19T05:55:15.174Z,4.17
2023-05-19T05:55:48.257Z,4.00
2023-05-19T05:56:22.481Z,3.20
2023-05-19T05:57:02.749Z,3.50
2023-05-19T05:57:36.795Z,3.17
2023-05-19T05:58:11.383Z,2.70
2023-05-19T05:58:46.363Z,3.30
2023-05-19T05:59:18.737Z,3.23
2023-05-19T05:59:51.161Z,3.10
2023-05-19T06:00:28.235Z,3.10
2023-05-19T06:01:02.228Z,3.60
2023-05-19T06:01:36.911Z,3.70
2023-05-19T06:02:14.432Z,3.57
2023-05-19T06:02:47.838Z,3.20
2023-05-19T06:03:24.595Z,3.47
2023-05-19T06:04:00.607Z,3.00
2023-05-19T06:04:33.102Z,3.00
2023-05-19T06:05:12.504Z,3.10
2023-05-19T06:05:47.719Z,3.33
2023-05-19T06:06:20.149Z,3.40
2023-05-19T06:06:52.968Z,3.30
2023-05-19T06:07:31.527Z,3.00
2023-05-19T06:08:04.538Z,3.73
2023-05-19T06:08:37.978Z,3.50
2023-05-19T06:09:12.955Z,3.13
2023-05-19T06:09:45.365Z,3.70
2023-05-19T06:10:17.958Z,3.43
2023-05-19T06:10:53.198Z,4.03
2023-05-19T06:11:25.683Z,3.63
2023-05-19T06:12:01.416Z,3.30
2023-05-19T06:12:43.419Z,3.87
2023-05-19T06:13:22.410Z,3.67
2023-05-19T06:13:54.862Z,3.60
2023-05-19T06:14:50.768Z,3.57
2023-05-19T06:15:36.951Z,3.43
2023-05-19T06:16:38.336Z,3.47
2023-05-19T06:17:11.751Z,3.57
2023-05-19T06:17:44.358Z,3.50
2023-05-19T06:18:21.051Z,3.20
2023-05-19T06:18:54.199Z,3.50
2023-05-19T06:19:26.938Z,3.20
2023-05-19T06:20:01.960Z,3.70
2023-05-19T06:20:37.164Z,2.97
2023-05-19T06:21:10.550Z,4.00
2023-05-19T06:21:46.059Z,3.40
2023-05-19T06:22:18.807Z,3.03
2023-05-19T06:22:51.270Z,3.67
2023-05-19T06:23:29.411Z,3.50
2023-05-19T06:24:01.859Z,3.73
2023-05-19T06:24:34.287Z,3.10
2023-05-19T06:25:11.443Z,3.90
2023-05-19T06:25:44.208Z,3.87
2023-05-19T06:26:17.163Z,3.60
2023-05-19T06:26:52.682Z,3.67
2023-05-19T06:27:25.102Z,3.63
2023-05-19T06:27:57.470Z,3.90
2023-05-19T06:28:32.695Z,3.90
2023-05-19T06:29:05.378Z,3.80
2023-05-19T06:29:37.795Z,3.97
2023-05-19T06:30:16.440Z,3.20
2023-05-19T06:30:58.790Z,3.80
2023-05-19T06:31:57.099Z,3.43
2023-05-19T06:32:30.308Z,3.40
2023-05-19T06:33:06.219Z,3.30
2023-05-19T06:33:41.227Z,3.97
2023-05-19T06:34:17.755Z,4.03
2023-05-19T06:34:54.904Z,3.53
2023-05-19T06:35:27.490Z,3.63
2023-05-19T06:36:05.197Z,3.70
2023-05-19T06:36:37.746Z,3.70
2023-05-19T06:37:10.159Z,4.07
2023-05-19T06:37:46.179Z,3.77
2023-05-19T06:38:18.713Z,3.50
2023-05-19T06:38:51.185Z,4.60
2023-05-19T06:39:26.507Z,3.70
2023-05-19T06:39:59.112Z,3.67
2023-05-19T06:40:32.374Z,3.30
2023-05-19T06:41:07.832Z,3.57
2023-05-19T06:41:40.587Z,3.97
2023-05-19T06:42:13.534Z,3.83
2023-05-19T06:43:05.122Z,4.30
2023-05-19T06:44:00.594Z,3.53
2023-05-19T06:44:38.919Z,4.00
2023-05-19T06:45:17.095Z,4.07
2023-05-19T06:45:53.513Z,3.87
2023-05-19T06:46:27.105Z,4.67
2023-05-19T06:46:59.562Z,3.50
2023-05-19T06:47:34.600Z,4.30
2023-05-19T06:48:07.306Z,4.00
2023-05-19T06:48:40.151Z,4.10
2023-05-19T06:49:16.298Z,3.93
2023-05-19T06:49:51.518Z,3.77
2023-05-19T06:50:24.276Z,4.37
2023-05-19T06:50:59.412Z,3.60
2023-05-19T06:51:35.585Z,4.00
2023-05-19T06:52:07.985Z,3.67
2023-05-19T06:52:43.660Z,4.00
2023-05-19T06:53:17.474Z,4.10
2023-05-19T06:53:52.880Z,3.60
2023-05-19T06:54:25.411Z,3.73
2023-05-19T06:54:57.760Z,3.90
2023-05-19T06:55:33.512Z,3.50
2023-05-19T06:56:07.372Z,3.57
2023-05-19T06:56:41.734Z,3.83
2023-05-19T06:57:16.903Z,4.50
2023-05-19T06:57:49.279Z,4.00
2023-05-19T06:58:25.129Z,3.80
2023-05-19T06:58:57.696Z,4.50
2023-05-19T06:59:37.782Z,3.97
2023-05-19T07:00:18.184Z,3.87
2023-05-19T07:00:53.715Z,4.40
2023-05-19T07:01:28.231Z,3.70
2023-05-19T07:02:04.977Z,4.30
2023-05-19T07:02:38.465Z,3.80
2023-05-19T07:03:11.541Z,3.97
2023-05-19T07:03:47.005Z,3.90
2023-05-19T07:04:20.815Z,4.30
2023-05-19T07:04:54.246Z,3.80
2023-05-19T07:05:30.559Z,4.57
2023-05-19T07:06:07.884Z,4.20
2023-05-19T07:06:43.438Z,4.23
2023-05-19T07:07:18.442Z,3.80
2023-05-19T07:07:50.841Z,4.07
2023-05-19T07:08:31.183Z,3.83
2023-05-19T07:09:06.747Z,3.83
2023-05-19T07:09:43.213Z,3.97
2023-05-19T07:10:15.667Z,4.03
2023-05-19T07:10:51.078Z,3.37
2023-05-19T07:11:23.472Z,4.27
2023-05-19T07:11:59.181Z,4.10
2023-05-19T07:12:31.571Z,4.00
2023-05-19T07:13:07.467Z,4.13
2023-05-19T07:13:41.397Z,4.23
2023-05-19T07:14:16.676Z,3.83
2023-05-19T07:14:49.117Z,4.00
2023-05-19T07:15:22.790Z,3.90
2023-05-19T07:15:58.679Z,4.00
2023-05-19T07:16:33.531Z,3.97
2023-05-19T07:17:05.930Z,4.43
2023-05-19T07:17:42.070Z,3.50
2023-05-19T07:18:14.561Z,3.63
2023-05-19T07:18:46.971Z,3.60
2023-05-19T07:19:22.726Z,3.57
2023-05-19T07:19:55.953Z,3.50
2023-05-19T07:20:31.203Z,3.80
2023-05-19T07:21:04.195Z,3.77
2023-05-19T07:21:38.141Z,3.73
2023-05-19T07:22:16.414Z,3.80
2023-05-19T07:22:48.809Z,4.17
2023-05-19T07:23:24.000Z,4.00
2023-05-19T07:23:56.355Z,3.77
2023-05-19T07:24:31.734Z,4.00
2023-05-19T07:25:04.296Z,3.87
2023-05-19T07:25:38.227Z,5.10
2023-05-19T07:26:13.226Z,3.73
2023-05-19T07:26:45.637Z,4.37
2023-05-19T07:27:17.991Z,4.10
2023-05-19T07:27:53.039Z,3.80
2023-05-19T07:28:25.405Z,3.97
2023-05-19T07:29:00.380Z,3.67
2023-05-19T07:29:32.791Z,4.67
2023-05-19T07:30:08.844Z,3.90
2023-05-19T07:30:41.332Z,4.10
2023-05-19T07:31:13.736Z,3.83
2023-05-19T07:31:48.756Z,4.10
2023-05-19T07:32:21.304Z,3.90
2023-05-19T07:32:56.473Z,3.90
2023-05-19T07:33:28.913Z,3.43
2023-05-19T07:34:03.944Z,3.80
2023-05-19T07:34:36.985Z,3.33
2023-05-19T07:35:12.181Z,3.60
2023-05-19T07:35:45.774Z,3.90
2023-05-19T07:36:18.250Z,3.93
2023-05-19T07:36:53.346Z,3.57
2023-05-19T07:37:28.372Z,3.53
2023-05-19T07:38:03.322Z,4.03
2023-05-19T07:38:35.971Z,3.93
2023-05-19T07:39:11.086Z,3.47
2023-05-19T07:39:43.557Z,3.77
2023-05-19T07:40:15.943Z,3.67
2023-05-19T07:40:51.018Z,3.60
2023-05-19T07:41:23.420Z,3.60
2023-05-19T07:41:55.976Z,3.80
2023-05-19T07:42:30.943Z,3.40
2023-05-19T07:43:03.289Z,3.37
2023-05-19T07:43:35.709Z,4.07
2023-05-19T07:44:11.037Z,4.30
2023-05-19T07:44:43.405Z,4.20
2023-05-19T07:45:18.403Z,4.40
2023-05-19T07:45:50.833Z,4.10
2023-05-19T07:46:26.012Z,3.43
2023-05-19T07:46:58.559Z,4.17
2023-05-19T07:47:31.063Z,4.20
2023-05-19T07:48:06.255Z,4.37
2023-05-19T07:48:38.666Z,3.83
2023-05-19T07:49:11.012Z,4.10
2023-05-19T07:49:46.262Z,4.93